sensor_id;sensor_type;location;lat;lon;timestamp;temperature;humidity
11559;DHT22;5835;42.930;25.178;2024-01-07T00:02:08;12.80;1.00
11559;DHT22;5835;42.930;25.178;2024-01-07T00:04:36;12.90;1.00
11559;DHT22;5835;42.930;25.178;2024-01-07T00:07:04;12.90;1.00
11559;DHT22;5835;42.930;25.178;2024-01-07T00:09:32;12.90;1.00
11559;DHT22;5835;42.930;25.178;2024-01-07T00:11:59;12.90;1.00
11559;DHT22;5835;42.930;25.178;2024-01-07T00:14:27;13.00;1.00
11559;DHT22;5835;42.930;25.178;2024-01-07T00:16:54;13.00;1.00
11559;DHT22;5835;42.930;25.178;2024-01-07T00:19:30;12.90;1.00
11559;DHT22;5835;42.930;25.178;2024-01-07T00:22:01;13.00;1.00
11559;DHT22;5835;42.930;25.178;2024-01-07T00:24:29;13.10;1.00
11559;DHT22;5835;42.930;25.178;2024-01-07T00:26:57;12.90;1.00
11559;DHT22;5835;42.930;25.178;2024-01-07T00:29:24;12.80;1.00
11559;DHT22;5835;42.930;25.178;2024-01-07T00:31:52;12.70;1.00
11559;DHT22;5835;42.930;25.178;2024-01-07T00:34:19;12.70;1.00
11559;DHT22;5835;42.930;25.178;2024-01-07T00:36:48;12.70;14.10
11559;DHT22;5835;42.930;25.178;2024-01-07T00:39:16;12.70;87.50
11559;DHT22;5835;42.930;25.178;2024-01-07T00:41:43;12.70;99.90
11559;DHT22;5835;42.930;25.178;2024-01-07T00:44:11;12.70;99.90
11559;DHT22;5835;42.930;25.178;2024-01-07T00:46:38;12.70;99.90
11559;DHT22;5835;42.930;25.178;2024-01-07T00:49:06;12.80;99.90
11559;DHT22;5835;42.930;25.178;2024-01-07T00:51:33;12.80;99.90
11559;DHT22;5835;42.930;25.178;2024-01-07T00:54:03;12.70;99.90
11559;DHT22;5835;42.930;25.178;2024-01-07T00:56:30;12.70;99.90
11559;DHT22;5835;42.930;25.178;2024-01-07T00:58:58;12.70;99.90
11559;DHT22;5835;42.930;25.178;2024-01-07T01:01:25;12.70;99.90
11559;DHT22;5835;42.930;25.178;2024-01-07T01:03:53;12.70;99.90
11559;DHT22;5835;42.930;25.178;2024-01-07T01:06:20;12.70;99.90
11559;DHT22;5835;42.930;25.178;2024-01-07T01:08:48;12.60;99.90
11559;DHT22;5835;42.930;25.178;2024-01-07T01:11:17;12.60;99.90
11559;DHT22;5835;42.930;25.178;2024-01-07T01:13:45;12.60;99.90
11559;DHT22;5835;42.930;25.178;2024-01-07T01:16:13;12.60;99.90
11559;DHT22;5835;42.930;25.178;2024-01-07T01:18:40;12.60;99.90
11559;DHT22;5835;42.930;25.178;2024-01-07T01:21:08;12.60;99.90
11559;DHT22;5835;42.930;25.178;2024-01-07T01:23:36;12.70;99.90
11559;DHT22;5835;42.930;25.178;2024-01-07T01:26:04;12.70;99.90
11559;DHT22;5835;42.930;25.178;2024-01-07T01:28:33;12.80;99.90
11559;DHT22;5835;42.930;25.178;2024-01-07T01:31:01;12.80;99.90
11559;DHT22;5835;42.930;25.178;2024-01-07T01:33:28;12.80;99.90
11559;DHT22;5835;42.930;25.178;2024-01-07T01:35:56;12.70;99.90
11559;DHT22;5835;42.930;25.178;2024-01-07T01:38:23;12.70;99.90
11559;DHT22;5835;42.930;25.178;2024-01-07T01:40:52;12.70;99.90
11559;DHT22;5835;42.930;25.178;2024-01-07T01:43:23;12.80;99.90
11559;DHT22;5835;42.930;25.178;2024-01-07T01:45:53;12.80;99.90
11559;DHT22;5835;42.930;25.178;2024-01-07T01:48:21;12.90;99.90
11559;DHT22;5835;42.930;25.178;2024-01-07T01:50:49;12.90;99.90
11559;DHT22;5835;42.930;25.178;2024-01-07T01:53:16;12.80;99.90
11559;DHT22;5835;42.930;25.178;2024-01-07T01:55:44;12.80;99.90
11559;DHT22;5835;42.930;25.178;2024-01-07T01:58:13;12.80;99.90
11559;DHT22;5835;42.930;25.178;2024-01-07T02:00:41;12.70;99.90
11559;DHT22;5835;42.930;25.178;2024-01-07T02:03:10;12.70;99.90
11559;DHT22;5835;42.930;25.178;2024-01-07T02:05:37;12.70;99.90
11559;DHT22;5835;42.930;25.178;2024-01-07T02:08:06;12.70;99.90
11559;DHT22;5835;42.930;25.178;2024-01-07T02:10:34;12.70;99.90
11559;DHT22;5835;42.930;25.178;2024-01-07T02:13:02;12.70;99.90
11559;DHT22;5835;42.930;25.178;2024-01-07T02:15:30;12.70;99.90
11559;DHT22;5835;42.930;25.178;2024-01-07T02:17:58;12.70;99.90
11559;DHT22;5835;42.930;25.178;2024-01-07T02:20:27;12.80;99.90
11559;DHT22;5835;42.930;25.178;2024-01-07T02:22:54;12.80;99.90
11559;DHT22;5835;42.930;25.178;2024-01-07T02:25:25;12.80;99.90
11559;DHT22;5835;42.930;25.178;2024-01-07T02:27:52;12.80;99.90
11559;DHT22;5835;42.930;25.178;2024-01-07T02:30:20;12.90;99.90
11559;DHT22;5835;42.930;25.178;2024-01-07T02:32:47;12.90;99.90
11559;DHT22;5835;42.930;25.178;2024-01-07T02:35:15;13.00;99.90
11559;DHT22;5835;42.930;25.178;2024-01-07T02:37:43;13.00;83.40
11559;DHT22;5835;42.930;25.178;2024-01-07T02:40:11;13.00;34.30
11559;DHT22;5835;42.930;25.178;2024-01-07T02:42:40;13.00;15.90
11559;DHT22;5835;42.930;25.178;2024-01-07T02:45:09;13.10;1.00
11559;DHT22;5835;42.930;25.178;2024-01-07T02:47:36;13.00;1.00
11559;DHT22;5835;42.930;25.178;2024-01-07T02:50:04;13.10;1.00
11559;DHT22;5835;42.930;25.178;2024-01-07T02:52:32;13.20;1.00
11559;DHT22;5835;42.930;25.178;2024-01-07T02:55:00;13.10;1.00
11559;DHT22;5835;42.930;25.178;2024-01-07T02:57:28;13.10;1.00
11559;DHT22;5835;42.930;25.178;2024-01-07T02:59:56;13.00;1.00
11559;DHT22;5835;42.930;25.178;2024-01-07T03:02:25;12.90;13.00
11559;DHT22;5835;42.930;25.178;2024-01-07T03:04:52;12.80;91.30
11559;DHT22;5835;42.930;25.178;2024-01-07T03:07:20;12.80;99.90
11559;DHT22;5835;42.930;25.178;2024-01-07T03:09:48;12.80;99.90
11559;DHT22;5835;42.930;25.178;2024-01-07T03:12:16;12.80;99.90
11559;DHT22;5835;42.930;25.178;2024-01-07T03:14:43;12.90;99.90
11559;DHT22;5835;42.930;25.178;2024-01-07T03:17:12;13.00;96.20
11559;DHT22;5835;42.930;25.178;2024-01-07T03:19:40;13.00;53.90
11559;DHT22;5835;42.930;25.178;2024-01-07T03:22:08;13.00;33.60
11559;DHT22;5835;42.930;25.178;2024-01-07T03:24:36;13.00;18.20
11559;DHT22;5835;42.930;25.178;2024-01-07T03:27:04;13.00;4.50
11559;DHT22;5835;42.930;25.178;2024-01-07T03:29:31;13.00;10.50
11559;DHT22;5835;42.930;25.178;2024-01-07T03:31:59;12.90;19.60
11559;DHT22;5835;42.930;25.178;2024-01-07T03:34:28;12.90;23.20
11559;DHT22;5835;42.930;25.178;2024-01-07T03:36:55;12.90;28.90
11559;DHT22;5835;42.930;25.178;2024-01-07T03:39:23;12.90;24.70
11559;DHT22;5835;42.930;25.178;2024-01-07T03:41:54;13.00;10.00
11559;DHT22;5835;42.930;25.178;2024-01-07T03:44:22;13.00;1.00
11559;DHT22;5835;42.930;25.178;2024-01-07T03:46:50;12.90;1.00
11559;DHT22;5835;42.930;25.178;2024-01-07T03:49:17;12.80;1.00
11559;DHT22;5835;42.930;25.178;2024-01-07T03:51:46;12.80;1.00
11559;DHT22;5835;42.930;25.178;2024-01-07T03:54:14;12.80;1.00
11559;DHT22;5835;42.930;25.178;2024-01-07T03:56:41;12.80;1.00
11559;DHT22;5835;42.930;25.178;2024-01-07T03:59:09;12.80;1.00
11559;DHT22;5835;42.930;25.178;2024-01-07T04:01:36;12.80;1.00
11559;DHT22;5835;42.930;25.178;2024-01-07T04:04:04;12.80;1.00
11559;DHT22;5835;42.930;25.178;2024-01-07T04:06:32;12.80;1.00
11559;DHT22;5835;42.930;25.178;2024-01-07T04:09:01;12.80;1.00
11559;DHT22;5835;42.930;25.178;2024-01-07T04:11:28;12.90;1.00
11559;DHT22;5835;42.930;25.178;2024-01-07T04:13:56;12.90;1.00
11559;DHT22;5835;42.930;25.178;2024-01-07T04:16:23;12.90;1.00
11559;DHT22;5835;42.930;25.178;2024-01-07T04:18:51;12.80;22.60
11559;DHT22;5835;42.930;25.178;2024-01-07T04:21:18;12.70;64.30
11559;DHT22;5835;42.930;25.178;2024-01-07T04:23:46;12.70;94.20
11559;DHT22;5835;42.930;25.178;2024-01-07T04:26:15;12.70;99.90
11559;DHT22;5835;42.930;25.178;2024-01-07T04:28:43;12.60;99.90
11559;DHT22;5835;42.930;25.178;2024-01-07T04:31:10;12.60;99.90
11559;DHT22;5835;42.930;25.178;2024-01-07T04:33:37;12.60;99.90
11559;DHT22;5835;42.930;25.178;2024-01-07T04:36:06;12.60;99.90
11559;DHT22;5835;42.930;25.178;2024-01-07T04:38:34;12.60;99.90
11559;DHT22;5835;42.930;25.178;2024-01-07T04:41:03;12.80;99.90
11559;DHT22;5835;42.930;25.178;2024-01-07T04:43:35;12.90;56.10
11559;DHT22;5835;42.930;25.178;2024-01-07T04:46:02;13.00;5.90
11559;DHT22;5835;42.930;25.178;2024-01-07T04:48:30;13.00;1.00
11559;DHT22;5835;42.930;25.178;2024-01-07T04:50:57;12.90;1.00
11559;DHT22;5835;42.930;25.178;2024-01-07T04:53:25;12.80;21.10
11559;DHT22;5835;42.930;25.178;2024-01-07T04:55:52;12.80;40.60
11559;DHT22;5835;42.930;25.178;2024-01-07T04:58:20;12.80;90.90
11559;DHT22;5835;42.930;25.178;2024-01-07T05:00:49;12.70;99.90
11559;DHT22;5835;42.930;25.178;2024-01-07T05:03:16;12.50;99.90
11559;DHT22;5835;42.930;25.178;2024-01-07T05:05:44;12.40;99.90
11559;DHT22;5835;42.930;25.178;2024-01-07T05:08:11;12.30;99.90
11559;DHT22;5835;42.930;25.178;2024-01-07T05:10:39;12.30;99.90
11559;DHT22;5835;42.930;25.178;2024-01-07T05:13:06;12.30;99.90
11559;DHT22;5835;42.930;25.178;2024-01-07T05:15:34;12.30;99.90
11559;DHT22;5835;42.930;25.178;2024-01-07T05:18:07;12.30;99.90
11559;DHT22;5835;42.930;25.178;2024-01-07T05:20:35;12.30;99.90
11559;DHT22;5835;42.930;25.178;2024-01-07T05:23:02;12.40;99.90
11559;DHT22;5835;42.930;25.178;2024-01-07T05:25:30;12.50;99.90
11559;DHT22;5835;42.930;25.178;2024-01-07T05:27:57;12.40;99.90
11559;DHT22;5835;42.930;25.178;2024-01-07T05:30:25;12.20;1.00
11559;DHT22;5835;42.930;25.178;2024-01-07T05:32:52;12.20;1.00
11559;DHT22;5835;42.930;25.178;2024-01-07T05:35:22;12.20;1.00
11559;DHT22;5835;42.930;25.178;2024-01-07T05:37:49;12.20;1.00
11559;DHT22;5835;42.930;25.178;2024-01-07T05:40:17;12.20;1.00
11559;DHT22;5835;42.930;25.178;2024-01-07T05:42:44;12.20;1.00
11559;DHT22;5835;42.930;25.178;2024-01-07T05:45:12;12.20;1.00
11559;DHT22;5835;42.930;25.178;2024-01-07T05:47:39;12.20;1.00
11559;DHT22;5835;42.930;25.178;2024-01-07T05:50:07;12.10;99.90
11559;DHT22;5835;42.930;25.178;2024-01-07T05:52:36;11.90;92.70
11559;DHT22;5835;42.930;25.178;2024-01-07T05:55:04;11.70;99.90
11559;DHT22;5835;42.930;25.178;2024-01-07T05:57:32;11.50;99.90
11559;DHT22;5835;42.930;25.178;2024-01-07T05:59:59;11.50;1.00
11559;DHT22;5835;42.930;25.178;2024-01-07T06:02:27;11.40;99.90
11559;DHT22;5835;42.930;25.178;2024-01-07T06:04:54;11.30;1.00
11559;DHT22;5835;42.930;25.178;2024-01-07T06:07:22;11.30;1.00
11559;DHT22;5835;42.930;25.178;2024-01-07T06:09:51;11.30;1.00
11559;DHT22;5835;42.930;25.178;2024-01-07T06:12:18;11.20;1.00
11559;DHT22;5835;42.930;25.178;2024-01-07T06:14:46;11.20;1.00
11559;DHT22;5835;42.930;25.178;2024-01-07T06:17:13;11.10;41.20
11559;DHT22;5835;42.930;25.178;2024-01-07T06:19:41;11.10;67.40
11559;DHT22;5835;42.930;25.178;2024-01-07T06:22:08;11.10;80.40
11559;DHT22;5835;42.930;25.178;2024-01-07T06:24:36;11.10;33.60
11559;DHT22;5835;42.930;25.178;2024-01-07T06:27:05;11.10;27.90
11559;DHT22;5835;42.930;25.178;2024-01-07T06:29:33;11.10;1.00
11559;DHT22;5835;42.930;25.178;2024-01-07T06:32:00;11.20;1.00
11559;DHT22;5835;42.930;25.178;2024-01-07T06:34:33;11.20;99.90
11559;DHT22;5835;42.930;25.178;2024-01-07T06:37:00;11.10;99.90
11559;DHT22;5835;42.930;25.178;2024-01-07T06:39:28;11.10;99.90
11559;DHT22;5835;42.930;25.178;2024-01-07T06:42:00;11.00;1.00
11559;DHT22;5835;42.930;25.178;2024-01-07T06:44:30;11.00;1.00
11559;DHT22;5835;42.930;25.178;2024-01-07T06:46:58;10.80;99.90
11559;DHT22;5835;42.930;25.178;2024-01-07T06:49:25;10.80;99.90
11559;DHT22;5835;42.930;25.178;2024-01-07T06:51:53;10.80;99.90
11559;DHT22;5835;42.930;25.178;2024-01-07T06:54:20;10.70;99.90
11559;DHT22;5835;42.930;25.178;2024-01-07T06:56:48;10.70;1.00
11559;DHT22;5835;42.930;25.178;2024-01-07T06:59:15;10.80;1.00
11559;DHT22;5835;42.930;25.178;2024-01-07T07:01:44;10.80;1.00
11559;DHT22;5835;42.930;25.178;2024-01-07T07:04:12;10.90;1.00
11559;DHT22;5835;42.930;25.178;2024-01-07T07:06:40;10.90;99.90
11559;DHT22;5835;42.930;25.178;2024-01-07T07:09:07;11.00;1.00
11559;DHT22;5835;42.930;25.178;2024-01-07T07:11:37;11.10;99.90
11559;DHT22;5835;42.930;25.178;2024-01-07T07:14:05;11.20;99.90
11559;DHT22;5835;42.930;25.178;2024-01-07T07:16:32;11.30;1.00
11559;DHT22;5835;42.930;25.178;2024-01-07T07:19:01;11.30;99.90
11559;DHT22;5835;42.930;25.178;2024-01-07T07:21:30;11.30;99.90
11559;DHT22;5835;42.930;25.178;2024-01-07T07:23:58;11.20;99.90
11559;DHT22;5835;42.930;25.178;2024-01-07T07:26:25;11.20;99.90
11559;DHT22;5835;42.930;25.178;2024-01-07T07:28:56;11.20;41.10
11559;DHT22;5835;42.930;25.178;2024-01-07T07:31:24;11.30;1.00
11559;DHT22;5835;42.930;25.178;2024-01-07T07:33:51;11.20;1.00
11559;DHT22;5835;42.930;25.178;2024-01-07T07:36:20;11.20;1.00
11559;DHT22;5835;42.930;25.178;2024-01-07T07:38:48;11.20;99.90
11559;DHT22;5835;42.930;25.178;2024-01-07T07:41:15;11.30;99.90
11559;DHT22;5835;42.930;25.178;2024-01-07T07:43:43;11.40;99.90
11559;DHT22;5835;42.930;25.178;2024-01-07T07:46:10;11.30;99.90
11559;DHT22;5835;42.930;25.178;2024-01-07T07:48:39;11.40;99.90
11559;DHT22;5835;42.930;25.178;2024-01-07T07:51:07;11.30;31.20
11559;DHT22;5835;42.930;25.178;2024-01-07T07:53:38;11.30;1.00
11559;DHT22;5835;42.930;25.178;2024-01-07T07:56:06;11.40;1.00
11559;DHT22;5835;42.930;25.178;2024-01-07T07:58:34;11.50;1.00
11559;DHT22;5835;42.930;25.178;2024-01-07T08:01:02;11.50;1.00
11559;DHT22;5835;42.930;25.178;2024-01-07T08:03:30;11.60;1.00
11559;DHT22;5835;42.930;25.178;2024-01-07T08:05:58;11.60;1.00
11559;DHT22;5835;42.930;25.178;2024-01-07T08:08:25;11.50;99.90
11559;DHT22;5835;42.930;25.178;2024-01-07T08:10:54;11.50;99.90
11559;DHT22;5835;42.930;25.178;2024-01-07T08:13:22;11.60;99.90
11559;DHT22;5835;42.930;25.178;2024-01-07T08:15:49;11.60;99.90
11559;DHT22;5835;42.930;25.178;2024-01-07T08:18:17;11.60;99.90
11559;DHT22;5835;42.930;25.178;2024-01-07T08:20:44;11.70;99.90
11559;DHT22;5835;42.930;25.178;2024-01-07T08:23:12;11.70;99.90
11559;DHT22;5835;42.930;25.178;2024-01-07T08:25:40;11.70;99.90
11559;DHT22;5835;42.930;25.178;2024-01-07T08:28:09;11.70;99.90
11559;DHT22;5835;42.930;25.178;2024-01-07T08:30:37;11.80;99.90
11559;DHT22;5835;42.930;25.178;2024-01-07T08:33:05;11.80;48.40
11559;DHT22;5835;42.930;25.178;2024-01-07T08:35:32;12.00;1.00
11559;DHT22;5835;42.930;25.178;2024-01-07T08:38:00;12.00;1.00
11559;DHT22;5835;42.930;25.178;2024-01-07T08:40:27;12.20;1.00
11559;DHT22;5835;42.930;25.178;2024-01-07T08:42:55;12.10;1.00
11559;DHT22;5835;42.930;25.178;2024-01-07T08:45:24;12.30;1.00
11559;DHT22;5835;42.930;25.178;2024-01-07T08:47:54;12.40;1.00
11559;DHT22;5835;42.930;25.178;2024-01-07T08:50:21;12.60;1.00
11559;DHT22;5835;42.930;25.178;2024-01-07T08:52:49;12.70;1.00
11559;DHT22;5835;42.930;25.178;2024-01-07T08:55:16;12.70;1.00
11559;DHT22;5835;42.930;25.178;2024-01-07T08:57:44;12.60;99.90
11559;DHT22;5835;42.930;25.178;2024-01-07T09:00:15;12.50;99.90
11559;DHT22;5835;42.930;25.178;2024-01-07T09:02:45;12.50;99.90
11559;DHT22;5835;42.930;25.178;2024-01-07T09:05:13;12.40;99.90
11559;DHT22;5835;42.930;25.178;2024-01-07T09:07:40;12.50;99.90
11559;DHT22;5835;42.930;25.178;2024-01-07T09:10:08;12.40;99.90
11559;DHT22;5835;42.930;25.178;2024-01-07T09:12:37;12.30;99.90
11559;DHT22;5835;42.930;25.178;2024-01-07T09:15:06;12.40;99.90
11559;DHT22;5835;42.930;25.178;2024-01-07T09:17:35;12.30;99.90
11559;DHT22;5835;42.930;25.178;2024-01-07T09:20:06;12.40;99.90
11559;DHT22;5835;42.930;25.178;2024-01-07T09:22:34;12.40;99.90
11559;DHT22;5835;42.930;25.178;2024-01-07T09:25:02;12.40;99.90
11559;DHT22;5835;42.930;25.178;2024-01-07T09:27:31;12.40;99.90
11559;DHT22;5835;42.930;25.178;2024-01-07T09:29:59;12.40;99.90
11559;DHT22;5835;42.930;25.178;2024-01-07T09:32:27;12.40;99.90
11559;DHT22;5835;42.930;25.178;2024-01-07T09:34:55;12.40;99.90
11559;DHT22;5835;42.930;25.178;2024-01-07T09:37:25;12.40;99.90
11559;DHT22;5835;42.930;25.178;2024-01-07T09:39:52;12.40;99.90
11559;DHT22;5835;42.930;25.178;2024-01-07T09:42:20;12.40;99.90
11559;DHT22;5835;42.930;25.178;2024-01-07T09:44:48;12.40;99.90
11559;DHT22;5835;42.930;25.178;2024-01-07T09:47:17;12.30;99.90
11559;DHT22;5835;42.930;25.178;2024-01-07T09:49:46;12.30;99.90
11559;DHT22;5835;42.930;25.178;2024-01-07T09:52:14;12.30;99.90
11559;DHT22;5835;42.930;25.178;2024-01-07T09:54:48;12.30;99.90
11559;DHT22;5835;42.930;25.178;2024-01-07T09:57:18;12.30;99.90
11559;DHT22;5835;42.930;25.178;2024-01-07T09:59:46;12.30;99.90
11559;DHT22;5835;42.930;25.178;2024-01-07T10:02:14;12.40;99.90
11559;DHT22;5835;42.930;25.178;2024-01-07T10:04:43;12.50;99.90
11559;DHT22;5835;42.930;25.178;2024-01-07T10:07:11;12.50;99.90
11559;DHT22;5835;42.930;25.178;2024-01-07T10:09:40;12.50;99.90
11559;DHT22;5835;42.930;25.178;2024-01-07T10:12:10;12.60;99.90
11559;DHT22;5835;42.930;25.178;2024-01-07T10:14:39;12.70;99.90
11559;DHT22;5835;42.930;25.178;2024-01-07T10:17:14;12.80;99.90
11559;DHT22;5835;42.930;25.178;2024-01-07T10:19:44;12.80;99.90
11559;DHT22;5835;42.930;25.178;2024-01-07T10:22:13;12.90;99.90
11559;DHT22;5835;42.930;25.178;2024-01-07T10:24:42;13.00;99.90
11559;DHT22;5835;42.930;25.178;2024-01-07T10:27:11;13.00;99.90
11559;DHT22;5835;42.930;25.178;2024-01-07T10:29:39;13.00;99.90
11559;DHT22;5835;42.930;25.178;2024-01-07T10:32:06;13.00;99.90
11559;DHT22;5835;42.930;25.178;2024-01-07T10:34:35;13.00;99.90
11559;DHT22;5835;42.930;25.178;2024-01-07T10:37:04;13.00;99.90
11559;DHT22;5835;42.930;25.178;2024-01-07T10:39:32;13.00;97.90
11559;DHT22;5835;42.930;25.178;2024-01-07T10:42:00;13.10;99.20
11559;DHT22;5835;42.930;25.178;2024-01-07T10:44:30;13.10;85.40
11559;DHT22;5835;42.930;25.178;2024-01-07T10:46:59;13.30;72.80
11559;DHT22;5835;42.930;25.178;2024-01-07T10:49:31;13.50;64.90
11559;DHT22;5835;42.930;25.178;2024-01-07T10:52:03;13.40;48.30
11559;DHT22;5835;42.930;25.178;2024-01-07T10:54:32;13.50;28.40
11559;DHT22;5835;42.930;25.178;2024-01-07T10:57:07;13.50;26.40
11559;DHT22;5835;42.930;25.178;2024-01-07T10:59:38;13.60;14.30
11559;DHT22;5835;42.930;25.178;2024-01-07T11:02:07;13.80;9.90
11559;DHT22;5835;42.930;25.178;2024-01-07T11:04:42;13.80;2.30
11559;DHT22;5835;42.930;25.178;2024-01-07T11:07:19;13.90;1.00
11559;DHT22;5835;42.930;25.178;2024-01-07T11:09:54;13.90;1.00
11559;DHT22;5835;42.930;25.178;2024-01-07T11:12:23;14.00;1.00
11559;DHT22;5835;42.930;25.178;2024-01-07T11:14:52;14.10;1.00
11559;DHT22;5835;42.930;25.178;2024-01-07T11:17:41;14.00;1.00
11559;DHT22;5835;42.930;25.178;2024-01-07T11:20:16;14.20;1.00
11559;DHT22;5835;42.930;25.178;2024-01-07T11:22:45;14.30;1.00
11559;DHT22;5835;42.930;25.178;2024-01-07T11:25:28;14.40;1.00
11559;DHT22;5835;42.930;25.178;2024-01-07T11:27:56;14.60;1.00
11559;DHT22;5835;42.930;25.178;2024-01-07T11:30:26;14.70;1.00
11559;DHT22;5835;42.930;25.178;2024-01-07T11:32:57;14.90;1.00
11559;DHT22;5835;42.930;25.178;2024-01-07T11:35:53;15.20;1.00
11559;DHT22;5835;42.930;25.178;2024-01-07T11:38:22;15.30;1.00
11559;DHT22;5835;42.930;25.178;2024-01-07T11:40:51;15.20;1.00
11559;DHT22;5835;42.930;25.178;2024-01-07T11:43:18;14.90;1.00
11559;DHT22;5835;42.930;25.178;2024-01-07T11:45:49;14.90;1.00
11559;DHT22;5835;42.930;25.178;2024-01-07T11:48:17;14.80;1.00
11559;DHT22;5835;42.930;25.178;2024-01-07T11:50:45;14.90;1.00
11559;DHT22;5835;42.930;25.178;2024-01-07T11:53:13;15.00;1.00
11559;DHT22;5835;42.930;25.178;2024-01-07T11:55:40;15.10;1.00
11559;DHT22;5835;42.930;25.178;2024-01-07T11:58:10;15.00;1.00
11559;DHT22;5835;42.930;25.178;2024-01-07T12:00:38;15.10;1.00
11559;DHT22;5835;42.930;25.178;2024-01-07T12:03:07;15.20;1.00
11559;DHT22;5835;42.930;25.178;2024-01-07T12:05:34;15.10;1.00
11559;DHT22;5835;42.930;25.178;2024-01-07T12:08:02;15.20;1.00
11559;DHT22;5835;42.930;25.178;2024-01-07T12:10:31;15.20;1.00
11559;DHT22;5835;42.930;25.178;2024-01-07T12:12:58;15.30;1.00
11559;DHT22;5835;42.930;25.178;2024-01-07T12:15:26;15.20;1.00
11559;DHT22;5835;42.930;25.178;2024-01-07T12:17:59;15.10;1.00
11559;DHT22;5835;42.930;25.178;2024-01-07T12:20:29;15.10;1.00
11559;DHT22;5835;42.930;25.178;2024-01-07T12:22:57;15.00;1.00
11559;DHT22;5835;42.930;25.178;2024-01-07T12:25:25;15.00;1.00
11559;DHT22;5835;42.930;25.178;2024-01-07T12:27:52;14.90;1.00
11559;DHT22;5835;42.930;25.178;2024-01-07T12:30:20;14.60;1.00
11559;DHT22;5835;42.930;25.178;2024-01-07T12:32:50;14.50;1.00
11559;DHT22;5835;42.930;25.178;2024-01-07T12:35:17;14.50;1.00
11559;DHT22;5835;42.930;25.178;2024-01-07T12:37:48;14.40;1.00
11559;DHT22;5835;42.930;25.178;2024-01-07T12:40:16;14.30;1.00
11559;DHT22;5835;42.930;25.178;2024-01-07T12:42:45;14.30;1.00
11559;DHT22;5835;42.930;25.178;2024-01-07T12:45:13;14.20;1.00
11559;DHT22;5835;42.930;25.178;2024-01-07T12:47:41;14.20;1.00
11559;DHT22;5835;42.930;25.178;2024-01-07T12:50:09;14.20;1.00
11559;DHT22;5835;42.930;25.178;2024-01-07T12:52:37;14.20;1.00
11559;DHT22;5835;42.930;25.178;2024-01-07T12:55:08;14.10;1.00
11559;DHT22;5835;42.930;25.178;2024-01-07T12:57:37;14.10;1.00
11559;DHT22;5835;42.930;25.178;2024-01-07T13:00:07;14.10;1.00
11559;DHT22;5835;42.930;25.178;2024-01-07T13:02:35;14.10;1.00
11559;DHT22;5835;42.930;25.178;2024-01-07T13:05:02;14.00;1.00
11559;DHT22;5835;42.930;25.178;2024-01-07T13:07:31;14.00;1.00
11559;DHT22;5835;42.930;25.178;2024-01-07T13:09:58;14.00;1.00
11559;DHT22;5835;42.930;25.178;2024-01-07T13:12:27;14.00;1.00
11559;DHT22;5835;42.930;25.178;2024-01-07T13:14:55;13.90;1.00
11559;DHT22;5835;42.930;25.178;2024-01-07T13:17:22;14.00;1.00
11559;DHT22;5835;42.930;25.178;2024-01-07T13:19:50;13.90;1.00
11559;DHT22;5835;42.930;25.178;2024-01-07T13:22:18;13.90;1.00
11559;DHT22;5835;42.930;25.178;2024-01-07T13:24:45;13.90;1.00
11559;DHT22;5835;42.930;25.178;2024-01-07T13:27:13;13.90;1.00
11559;DHT22;5835;42.930;25.178;2024-01-07T13:29:42;13.90;1.00
11559;DHT22;5835;42.930;25.178;2024-01-07T13:32:11;13.80;1.00
11559;DHT22;5835;42.930;25.178;2024-01-07T13:34:41;13.80;1.00
11559;DHT22;5835;42.930;25.178;2024-01-07T13:37:10;13.80;1.00
11559;DHT22;5835;42.930;25.178;2024-01-07T13:39:38;13.70;1.00
11559;DHT22;5835;42.930;25.178;2024-01-07T13:42:06;13.70;1.00
11559;DHT22;5835;42.930;25.178;2024-01-07T13:44:34;13.70;1.00
11559;DHT22;5835;42.930;25.178;2024-01-07T13:47:03;13.70;1.00
11559;DHT22;5835;42.930;25.178;2024-01-07T13:49:32;13.70;1.00
11559;DHT22;5835;42.930;25.178;2024-01-07T13:51:59;13.70;1.00
11559;DHT22;5835;42.930;25.178;2024-01-07T13:54:27;13.70;1.00
11559;DHT22;5835;42.930;25.178;2024-01-07T13:56:54;13.70;1.00
11559;DHT22;5835;42.930;25.178;2024-01-07T13:59:21;13.70;1.00
11559;DHT22;5835;42.930;25.178;2024-01-07T14:01:50;13.60;1.00
11559;DHT22;5835;42.930;25.178;2024-01-07T14:04:19;13.60;1.00
11559;DHT22;5835;42.930;25.178;2024-01-07T14:06:46;13.60;1.00
11559;DHT22;5835;42.930;25.178;2024-01-07T14:09:15;13.60;1.00
11559;DHT22;5835;42.930;25.178;2024-01-07T14:11:43;13.50;1.00
11559;DHT22;5835;42.930;25.178;2024-01-07T14:14:11;13.50;1.00
11559;DHT22;5835;42.930;25.178;2024-01-07T14:16:39;13.50;1.00
11559;DHT22;5835;42.930;25.178;2024-01-07T14:19:07;13.50;1.00
11559;DHT22;5835;42.930;25.178;2024-01-07T14:21:36;13.40;1.00
11559;DHT22;5835;42.930;25.178;2024-01-07T14:24:04;13.40;1.00
11559;DHT22;5835;42.930;25.178;2024-01-07T14:26:32;13.40;1.00
11559;DHT22;5835;42.930;25.178;2024-01-07T14:28:59;13.30;1.00
11559;DHT22;5835;42.930;25.178;2024-01-07T14:31:29;13.30;1.00
11559;DHT22;5835;42.930;25.178;2024-01-07T14:33:57;13.20;1.00
11559;DHT22;5835;42.930;25.178;2024-01-07T14:36:25;13.10;1.00
11559;DHT22;5835;42.930;25.178;2024-01-07T14:38:54;12.60;1.00
11559;DHT22;5835;42.930;25.178;2024-01-07T14:41:21;12.50;1.00
11559;DHT22;5835;42.930;25.178;2024-01-07T14:43:49;12.60;1.00
11559;DHT22;5835;42.930;25.178;2024-01-07T14:46:17;12.70;1.00
11559;DHT22;5835;42.930;25.178;2024-01-07T14:48:44;12.50;1.00
11559;DHT22;5835;42.930;25.178;2024-01-07T14:51:12;12.10;25.40
11559;DHT22;5835;42.930;25.178;2024-01-07T14:53:40;11.90;59.90
11559;DHT22;5835;42.930;25.178;2024-01-07T14:56:09;11.70;95.50
11559;DHT22;5835;42.930;25.178;2024-01-07T14:58:36;11.50;99.90
11559;DHT22;5835;42.930;25.178;2024-01-07T15:01:04;11.30;99.90
11559;DHT22;5835;42.930;25.178;2024-01-07T15:03:32;11.20;99.90
11559;DHT22;5835;42.930;25.178;2024-01-07T15:06:00;11.10;99.90
11559;DHT22;5835;42.930;25.178;2024-01-07T15:08:28;10.90;99.90
11559;DHT22;5835;42.930;25.178;2024-01-07T15:10:55;10.70;99.90
11559;DHT22;5835;42.930;25.178;2024-01-07T15:13:24;10.60;99.90
11559;DHT22;5835;42.930;25.178;2024-01-07T15:15:56;10.40;99.90
11559;DHT22;5835;42.930;25.178;2024-01-07T15:18:23;10.20;1.00
11559;DHT22;5835;42.930;25.178;2024-01-07T15:20:51;10.20;1.00
11559;DHT22;5835;42.930;25.178;2024-01-07T15:23:18;10.10;1.00
11559;DHT22;5835;42.930;25.178;2024-01-07T15:25:46;10.00;1.00
11559;DHT22;5835;42.930;25.178;2024-01-07T15:28:13;10.00;1.00
11559;DHT22;5835;42.930;25.178;2024-01-07T15:30:41;9.80;99.90
11559;DHT22;5835;42.930;25.178;2024-01-07T15:33:09;9.80;99.90
11559;DHT22;5835;42.930;25.178;2024-01-07T15:35:36;9.70;99.90
11559;DHT22;5835;42.930;25.178;2024-01-07T15:38:04;9.60;1.00
11559;DHT22;5835;42.930;25.178;2024-01-07T15:40:31;9.50;1.00
11559;DHT22;5835;42.930;25.178;2024-01-07T15:42:59;9.40;99.90
11559;DHT22;5835;42.930;25.178;2024-01-07T15:45:29;9.30;1.00